EW4874 Weather Reports


Display with metric or nautical units.
time (UTC)temp
F
wind
direction
speed
MPH
gust
MPH
rain 1hr
in
rain 24hr
in
rain mn
in
humidity
%
barometer
mb
20200331001015 42 0.0 1.0 0.01 0.12 0.11 88 1012.0
20200331000015 42 0.0 0.0 0.01 0.12 0.11 88 1011.7
20200330235015 42 0.0 0.0 0.01 0.13 0.11 88 1011.7
20200330234015 42 0.0 0.0 0.00 0.17 0.10 88 1011.6
20200330233015 43 0.0 0.0 0.00 0.17 0.10 88 1011.5
20200330232017 43 0.0 0.0 0.00 0.17 0.10 87 1011.4
20200330231017 43 0.0 0.0 0.00 0.17 0.10 87 1011.3
20200330230017 43 0.0 0.0 0.00 0.17 0.10 87 1011.1
20200330225017 43 0.0 2.0 0.00 0.17 0.10 87 1011.0
20200330224017 44 0.0 1.0 0.00 0.17 0.10 87 1010.9
20200330223017 44 0.0 1.0 0.00 0.17 0.10 86 1010.8
20200330222017 44 0.0 1.0 0.00 0.17 0.10 86 1010.7
20200330221017 44 68 1.0 4.0 0.00 0.17 0.10 86 1010.6
20200330220017 44 0.0 2.0 0.00 0.17 0.10 86 1010.3
20200330215017 45 68 1.0 5.0 0.00 0.17 0.10 85 1010.3
20200330214017 46 0.0 2.0 0.00 0.17 0.10 85 1010.1
20200330213017 46 0.0 2.0 0.00 0.17 0.10 84 1010.1
20200330212017 46 338 1.0 3.0 0.00 0.17 0.10 84 1010.0
20200330211017 46 338 1.0 3.0 0.00 0.17 0.10 85 1009.8
20200330210017 45 0.0 1.0 0.00 0.17 0.10 85 1009.8
20200330205017 46 338 1.0 4.0 0.00 0.17 0.10 87 1009.8
20200330204017 45 338 1.0 3.0 0.00 0.17 0.10 87 1009.7
20200330203017 45 338 1.0 3.0 0.00 0.17 0.10 87 1009.8
20200330202017 45 315 2.0 5.0 0.00 0.17 0.10 87 1009.7
20200330201017 44 338 2.0 4.0 0.01 0.17 0.10 87 1009.8
20200330200016 44 338 1.0 2.0 0.02 0.17 0.10 88 1009.7
20200330195017 44 315 1.0 3.0 0.02 0.17 0.10 87 1009.6
20200330194017 44 338 2.0 5.0 0.04 0.17 0.10 88 1009.4
20200330193016 44 315 2.0 4.0 0.05 0.17 0.10 88 1009.5
20200330192017 44 293 1.0 3.0 0.06 0.17 0.10 88 1009.5
20200330191016 45 270 1.0 3.0 0.05 0.16 0.09 88 1009.5
20200330190017 44 0.0 3.0 0.04 0.15 0.08 89 1009.5
20200330185017 43 270 1.0 3.0 0.04 0.15 0.08 88 1009.4
20200330184016 42 158 4.0 13.0 0.02 0.13 0.06 88 1009.4
20200330183017 42 158 4.0 9.0 0.01 0.12 0.05 88 1009.3
20200330182017 42 158 4.0 10.0 0.00 0.11 0.04 88 1008.9
20200330181016 42 158 5.0 9.0 0.00 0.11 0.04 88 1008.8
20200330180017 42 158 6.0 13.0 0.00 0.11 0.04 88 1008.9
20200330175017 42 158 5.0 11.0 0.00 0.11 0.04 88 1009.0
20200330174017 42 158 6.0 9.0 0.00 0.11 0.04 88 1009.1
20200330173016 42 158 5.0 10.0 0.01 0.11 0.04 88 1009.2
20200330172017 42 135 5.0 9.0 0.01 0.11 0.04 88 1009.2
20200330171017 42 135 3.0 7.0 0.01 0.11 0.04 88 1009.2
20200330170017 41 158 4.0 6.0 0.01 0.11 0.04 88 1009.3
20200330165016 41 158 5.0 10.0 0.01 0.11 0.04 88 1009.4
20200330164017 41 158 3.0 7.0 0.01 0.11 0.04 88 1009.5
20200330163017 41 135 3.0 6.0 0.00 0.10 0.03 88 1009.4
20200330162017 41 135 3.0 6.0 0.00 0.10 0.03 88 1009.5
20200330161016 40 158 3.0 6.0 0.01 0.10 0.03 88 1009.6
20200330160017 40 135 3.0 6.0 0.01 0.10 0.03 88 1009.7
20200330155016 40 158 4.0 9.0 0.01 0.10 0.03 88 1009.7
20200330154016 40 135 4.0 6.0 0.01 0.10 0.03 88 1009.7
20200330153016 40 158 4.0 7.0 0.01 0.10 0.03 88 1009.9
20200330152016 40 135 2.0 5.0 0.01 0.10 0.03 88 1009.6
20200330151016 40 135 4.0 8.0 0.00 0.09 0.02 88 1009.7
20200330150016 40 158 4.0 8.0 0.00 0.09 0.02 88 1009.6
20200330145017 41 158 6.0 10.0 0.00 0.10 0.02 88 1009.7
20200330144016 41 158 3.0 6.0 0.00 0.12 0.02 88 1009.9
20200330143016 41 158 4.0 8.0 0.00 0.13 0.02 88 1009.8
20200330142016 41 135 4.0 8.0 0.00 0.15 0.02 88 1009.9
20200330141017 41 158 3.0 7.0 0.00 0.16 0.02 89 1010.0
20200330140016 40 135 3.0 7.0 0.01 0.18 0.02 89 1010.0
20200330135016 40 158 4.0 8.0 0.01 0.19 0.02 89 1010.0
20200330134016 39 158 5.0 11.0 0.01 0.19 0.02 89 1009.9
20200330133016 39 158 6.0 12.0 0.01 0.19 0.02 88 1009.9
20200330132016 39 158 7.0 13.0 0.01 0.20 0.02 88 1010.0
20200330131016 39 158 10.0 20.0 0.01 0.21 0.02 88 1009.9
20200330130016 39 135 6.0 17.0 0.00 0.21 0.01 88 1010.6
20200330125016 38 135 5.0 8.0 0.00 0.21 0.01 88 1010.5
20200330124016 39 135 6.0 10.0 0.00 0.22 0.01 88 1010.4
20200330123016 39 158 8.0 14.0 0.00 0.22 0.01 88 1010.5
20200330122016 39 135 6.0 11.0 0.00 0.22 0.01 88 1010.6
20200330121016 40 135 5.0 10.0 0.00 0.23 0.01 88 1010.7
20200330120016 40 158 6.0 12.0 0.00 0.23 0.01 89 1010.6
20200330115016 39 158 5.0 10.0 0.00 0.23 0.01 89 1010.6
20200330114016 39 158 4.0 9.0 0.00 0.23 0.01 89 1010.6
20200330113016 40 135 4.0 9.0 0.00 0.23 0.01 89 1010.6
20200330112016 39 135 2.0 6.0 0.00 0.23 0.01 89 1010.5
20200330111016 39 135 3.0 7.0 0.00 0.23 0.01 89 1010.2
20200330110017 39 158 2.0 5.0 0.00 0.25 0.01 89 1010.4
20200330105016 39 158 4.0 7.0 0.00 0.28 0.01 89 1010.6
20200330104016 39 135 3.0 6.0 0.00 0.30 0.01 89 1010.4
20200330103016 39 158 4.0 9.0 0.00 0.34 0.01 89 1010.9
20200330102016 39 158 1.0 3.0 0.00 0.38 0.01 89 1010.8
20200330101016 39 158 1.0 2.0 0.00 0.40 0.01 89 1010.6
20200330100016 39 158 1.0 3.0 0.00 0.40 0.01 89 1010.3
20200330095016 39 158 4.0 8.0 0.00 0.40 0.01 89 1010.2
20200330094016 39 158 4.0 9.0 0.00 0.42 0.01 89 1010.2
20200330093016 39 158 4.0 9.0 0.00 0.46 0.01 89 1010.2
20200330092016 39 158 4.0 10.0 0.00 0.46 0.01 89 1010.3
20200330091016 39 158 4.0 6.0 0.00 0.46 0.01 89 1010.2
20200330090016 39 158 4.0 8.0 0.00 0.46 0.01 89 1010.4
20200330085016 39 158 3.0 7.0 0.00 0.46 0.01 89 1010.4
20200330084016 39 158 3.0 5.0 0.00 0.46 0.01 89 1010.3
20200330083016 39 158 2.0 4.0 0.00 0.46 0.01 89 1010.5
20200330082016 39 158 1.0 3.0 0.00 0.46 0.01 89 1010.5
20200330081016 39 158 2.0 4.0 0.00 0.46 0.01 89 1010.4
20200330080016 39 158 1.0 3.0 0.00 0.46 0.01 89 1010.5
20200330075016 39 158 1.0 6.0 0.00 0.46 0.01 89 1010.6
20200330074016 39 158 2.0 5.0 0.00 0.46 0.01 89 1010.6
20200330073016 39 135 2.0 6.0 0.00 0.46 0.01 89 1010.5
20200330072016 39 158 1.0 3.0 0.00 0.46 0.01 89 1010.4
20200330071016 39 135 2.0 4.0 0.00 0.46 0.01 89 1010.3
20200330070016 39 135 4.0 6.0 0.00 0.46 0.01 88 1010.4
20200330065016 40 135 3.0 7.0 0.00 0.46 0.01 89 1010.4
20200330064016 40 135 1.0 4.0 0.00 0.47 0.01 89 1010.5
20200330063016 40 135 2.0 5.0 0.00 0.47 0.01 89 1010.5
20200330062016 41 135 2.0 4.0 0.00 0.47 0.01 89 1010.7
20200330061016 41 135 1.0 3.0 0.00 0.47 0.01 89 1010.9
20200330060016 41 135 1.0 3.0 0.00 0.47 0.01 89 1011.1
20200330055016 41 0.0 1.0 0.00 0.47 0.01 89 1011.5
20200330054016 41 0.0 1.0 0.00 0.47 0.01 89 1011.5
20200330053016 41 135 1.0 3.0 0.00 0.47 0.01 89 1011.4
20200330052016 41 135 1.0 3.0 0.00 0.47 0.01 89 1011.4
20200330051016 41 113 1.0 4.0 0.01 0.47 0.01 89 1011.2
20200330050016 42 0.0 2.0 0.01 0.47 0.01 89 1011.7
20200330045016 42 158 1.0 2.0 0.02 0.48 0.01 89 1011.7
20200330044016 42 0.0 1.0 0.02 0.48 0.01 89 1012.0
20200330043016 42 135 1.0 2.0 0.02 0.48 0.01 89 1011.7
20200330042016 42 135 1.0 4.0 0.02 0.48 0.01 89 1011.3
20200330041016 42 0.0 2.0 0.01 0.47 0.00 89 1011.5
20200330040015 42 0.0 2.0 0.01 0.47 0.47 89 1011.3
20200330035015 42 113 1.0 4.0 0.00 0.46 0.46 89 1011.0
20200330034015 42 135 4.0 8.0 0.00 0.46 0.46 89 1010.4
20200330033015 43 135 3.0 5.0 0.00 0.46 0.46 89 1010.5
20200330032015 43 135 2.0 6.0 0.00 0.46 0.46 89 1010.8
20200330031015 43 135 2.0 4.0 0.00 0.47 0.46 89 1010.7
20200330030016 43 135 3.0 7.0 0.00 0.47 0.46 89 1010.6
20200330025015 43 135 5.0 9.0 0.00 0.47 0.46 89 1010.6
20200330024015 43 135 4.0 8.0 0.00 0.48 0.46 89 1010.6
20200330023016 43 135 3.0 7.0 0.00 0.48 0.46 89 1010.7
20200330022015 43 135 5.0 10.0 0.00 0.49 0.46 89 1010.6
20200330021015 44 135 7.0 11.0 0.00 0.50 0.46 89 1010.4
20200330020015 44 135 4.0 10.0 0.00 0.51 0.46 89 1010.4
20200330015015 44 135 5.0 9.0 0.00 0.52 0.46 88 1010.2
20200330014015 44 135 5.0 14.0 0.00 0.53 0.46 88 1010.5
20200330013015 44 135 5.0 9.0 0.00 0.54 0.46 88 1010.4
20200330012015 44 135 5.0 10.0 0.00 0.55 0.46 88 1010.2
20200330011015 44 135 2.0 5.0 0.00 0.56 0.46 88 1010.1
20200330010015 44 135 5.0 13.0 0.00 0.56 0.46 88 1009.9
20200330005017 44 135 4.0 8.0 0.01 0.56 0.46 88 1010.0
20200330004017 44 135 5.0 11.0 0.06 0.57 0.46 88 1009.7
20200330003017 44 158 7.0 12.0 0.06 0.57 0.46 88 1009.3
20200330002017 44 135 6.0 13.0 0.06 0.57 0.46 88 1008.8